createdAt,value
2022-11-29T00:02:04.147Z,98433.00
2022-11-29T00:04:51.656Z,98425.00
2022-11-29T00:07:39.132Z,98424.00
2022-11-29T00:10:26.748Z,98421.00
2022-11-29T00:13:14.631Z,98421.00
2022-11-29T00:16:09.470Z,98424.00
2022-11-29T00:18:57.083Z,98415.00
2022-11-29T00:21:44.866Z,98417.00
2022-11-29T00:24:33.082Z,98416.00
2022-11-29T00:27:20.677Z,98416.00
2022-11-29T00:30:09.306Z,98408.00
2022-11-29T00:32:56.811Z,98411.00
2022-11-29T00:35:44.291Z,98420.00
2022-11-29T00:38:31.822Z,98414.00
2022-11-29T00:41:20.340Z,98423.00
2022-11-29T00:44:08.672Z,98417.00
2022-11-29T00:46:56.485Z,98411.00
2022-11-29T00:49:44.016Z,98412.00
2022-11-29T00:52:31.706Z,98410.00
2022-11-29T00:55:19.463Z,98409.00
2022-11-29T00:58:06.921Z,98418.00
2022-11-29T01:00:55.581Z,98419.00
2022-11-29T01:03:43.260Z,98419.00
2022-11-29T01:06:30.846Z,98421.00
2022-11-29T01:09:19.403Z,98416.00
2022-11-29T01:12:07.412Z,98413.00
2022-11-29T01:14:55.057Z,98417.00
2022-11-29T01:17:42.991Z,98419.00
2022-11-29T01:20:31.392Z,98420.00
2022-11-29T01:23:19.081Z,98423.00
2022-11-29T01:26:12.441Z,98417.00
2022-11-29T01:29:00.526Z,98419.00
2022-11-29T01:31:48.001Z,98415.00
2022-11-29T01:34:35.861Z,98423.00
2022-11-29T01:37:23.716Z,98424.00
2022-11-29T01:40:12.072Z,98423.00
2022-11-29T01:43:00.182Z,98425.00
2022-11-29T01:45:50.362Z,98425.00
2022-11-29T01:48:41.176Z,98418.00
2022-11-29T01:51:30.914Z,98421.00
2022-11-29T01:54:20.602Z,98427.00
2022-11-29T01:57:09.800Z,98423.00
2022-11-29T02:00:06.633Z,98420.00
2022-11-29T02:03:10.305Z,98415.00
2022-11-29T02:05:57.771Z,98430.00
2022-11-29T02:08:45.561Z,98426.00
2022-11-29T02:11:57.476Z,98429.00
2022-11-29T02:15:13.936Z,98431.00
2022-11-29T02:18:12.737Z,98434.00
2022-11-29T02:21:12.031Z,98428.00
2022-11-29T02:24:30.301Z,98429.00
2022-11-29T02:28:17.961Z,98437.00
2022-11-29T02:32:08.733Z,98435.00
2022-11-29T02:35:23.606Z,98436.00
2022-11-29T02:38:30.792Z,98441.00
2022-11-29T02:41:57.382Z,98438.00
2022-11-29T02:45:18.452Z,98439.00
2022-11-29T02:48:33.502Z,98441.00
2022-11-29T02:52:09.937Z,98447.00
2022-11-29T02:55:25.786Z,98451.00
2022-11-29T02:58:27.856Z,98452.00
2022-11-29T03:01:57.786Z,98447.00
2022-11-29T03:05:25.371Z,98459.00
2022-11-29T03:08:57.633Z,98459.00
2022-11-29T03:11:58.725Z,98454.00
2022-11-29T03:15:01.352Z,98462.00
2022-11-29T03:18:15.902Z,98457.00
2022-11-29T03:21:19.069Z,98459.00
2022-11-29T03:24:24.338Z,98456.00
2022-11-29T03:27:26.349Z,98459.00
2022-11-29T03:30:19.200Z,98463.00
2022-11-29T03:33:16.856Z,98464.00
2022-11-29T03:36:24.126Z,98473.00
2022-11-29T03:39:30.466Z,98478.00
2022-11-29T03:42:45.656Z,98479.00
2022-11-29T03:46:03.268Z,98477.00
2022-11-29T03:49:00.664Z,98479.00
2022-11-29T03:52:12.893Z,98478.00
2022-11-29T03:55:33.136Z,98480.00
2022-11-29T03:58:42.987Z,98477.00
2022-11-29T04:01:54.645Z,98478.00
2022-11-29T04:05:14.527Z,98477.00
2022-11-29T04:08:46.731Z,98478.00
2022-11-29T04:11:59.421Z,98481.00
2022-11-29T04:15:23.881Z,98483.00
2022-11-29T04:18:36.497Z,98489.00
2022-11-29T04:21:49.072Z,98481.00
2022-11-29T04:25:07.248Z,98487.00
2022-11-29T04:28:39.386Z,98486.00
2022-11-29T04:31:59.801Z,98491.00
2022-11-29T04:35:39.642Z,98496.00
2022-11-29T04:38:33.317Z,98489.00
2022-11-29T04:41:51.323Z,98498.00
2022-11-29T04:45:00.505Z,98501.00
2022-11-29T04:48:06.108Z,98503.00
2022-11-29T04:51:38.382Z,98506.00
2022-11-29T04:54:58.677Z,98512.00
2022-11-29T04:58:16.491Z,98514.00
2022-11-29T05:01:57.991Z,98508.00
2022-11-29T05:05:21.942Z,98515.00
2022-11-29T05:08:27.717Z,98508.00
2022-11-29T05:11:44.022Z,98515.00
2022-11-29T05:14:49.611Z,98519.00
2022-11-29T05:17:56.831Z,98519.00
2022-11-29T05:21:03.460Z,98531.00
2022-11-29T05:24:19.271Z,98524.00
2022-11-29T05:27:58.361Z,98530.00
2022-11-29T05:31:22.621Z,98529.00
2022-11-29T05:34:44.481Z,98528.00
2022-11-29T05:37:49.515Z,98524.00
2022-11-29T05:41:20.031Z,98524.00
2022-11-29T05:44:32.330Z,98525.00
2022-11-29T05:47:46.036Z,98530.00
2022-11-29T05:51:01.141Z,98529.00
2022-11-29T05:54:21.703Z,98535.00
2022-11-29T05:57:37.945Z,98536.00
2022-11-29T06:00:35.546Z,98538.00
2022-11-29T06:03:58.202Z,98545.00
2022-11-29T06:07:03.001Z,98548.00
2022-11-29T06:10:11.871Z,98546.00
2022-11-29T06:13:46.260Z,98541.00
2022-11-29T06:17:23.230Z,98547.00
2022-11-29T06:20:54.307Z,98544.00
2022-11-29T06:24:02.911Z,98551.00
2022-11-29T06:27:48.600Z,98554.00
2022-11-29T06:31:18.068Z,98551.00
2022-11-29T06:35:03.712Z,98555.00
2022-11-29T06:37:55.776Z,98558.00
2022-11-29T06:40:44.518Z,98561.00
2022-11-29T06:43:33.785Z,98560.00
2022-11-29T06:46:49.025Z,98564.00
2022-11-29T06:50:04.257Z,98565.00
2022-11-29T06:53:40.325Z,98568.00
2022-11-29T06:56:59.867Z,98563.00
2022-11-29T07:00:06.337Z,98568.00
2022-11-29T07:03:30.607Z,98575.00
2022-11-29T07:06:27.466Z,98571.00
2022-11-29T07:09:20.521Z,98571.00
2022-11-29T07:12:08.900Z,98569.00
2022-11-29T07:14:56.971Z,98575.00
2022-11-29T07:19:01.480Z,98580.00
2022-11-29T07:22:29.462Z,98588.00
2022-11-29T07:25:49.140Z,98584.00
2022-11-29T07:29:17.781Z,98589.00
2022-11-29T07:32:40.337Z,98592.00
2022-11-29T07:36:00.610Z,98593.00
2022-11-29T07:39:41.512Z,98597.00
2022-11-29T07:43:01.157Z,98592.00
2022-11-29T07:45:52.417Z,98594.00
2022-11-29T07:48:40.023Z,98594.00
2022-11-29T07:51:28.036Z,98594.00
2022-11-29T07:54:20.197Z,98600.00
2022-11-29T07:57:08.186Z,98601.00
2022-11-29T07:59:56.015Z,98598.00
2022-11-29T08:02:44.656Z,98601.00
2022-11-29T08:05:32.346Z,98589.00
2022-11-29T08:08:19.987Z,98606.00
2022-11-29T08:11:12.989Z,98603.00
2022-11-29T08:14:02.821Z,98603.00
2022-11-29T08:16:50.609Z,98609.00
2022-11-29T08:19:38.385Z,98613.00
2022-11-29T08:22:25.882Z,98606.00
2022-11-29T08:25:13.355Z,98605.00
2022-11-29T08:28:03.747Z,98602.00
2022-11-29T08:30:51.567Z,98611.00
2022-11-29T08:33:42.512Z,98607.00
2022-11-29T08:36:30.107Z,98606.00
2022-11-29T08:39:18.155Z,98600.00
2022-11-29T08:42:05.801Z,98606.00
2022-11-29T08:44:53.298Z,98617.00
2022-11-29T08:47:42.397Z,98605.00
2022-11-29T08:50:30.319Z,98619.00
2022-11-29T08:53:36.653Z,98625.00
2022-11-29T08:57:10.217Z,98630.00
2022-11-29T08:59:31.653Z,98625.00
2022-11-29T09:02:19.941Z,98622.00
2022-11-29T09:05:09.465Z,98623.00
2022-11-29T09:07:58.814Z,98622.00
2022-11-29T09:10:47.767Z,98636.00
2022-11-29T09:13:35.728Z,98627.00
2022-11-29T09:16:28.884Z,98632.00
2022-11-29T09:19:17.426Z,98636.00
2022-11-29T09:22:05.797Z,98632.00
2022-11-29T09:24:53.319Z,98631.00
2022-11-29T09:27:41.807Z,98642.00
2022-11-29T09:30:31.780Z,98638.00
2022-11-29T09:33:19.490Z,98638.00
2022-11-29T09:36:10.177Z,98638.00
2022-11-29T09:39:02.756Z,98634.00
2022-11-29T09:42:36.826Z,98632.00
2022-11-29T09:45:36.654Z,98629.00
2022-11-29T09:48:27.222Z,98627.00
2022-11-29T09:51:42.704Z,98623.00
2022-11-29T09:55:13.626Z,98630.00
2022-11-29T09:58:03.948Z,98618.00
2022-11-29T10:01:02.783Z,98630.00
2022-11-29T10:03:56.999Z,98629.00
2022-11-29T10:07:04.441Z,98633.00
2022-11-29T10:10:01.964Z,98626.00
2022-11-29T10:13:00.207Z,98619.00
2022-11-29T10:15:54.982Z,98620.00
2022-11-29T10:19:15.861Z,98614.00
2022-11-29T10:22:15.418Z,98619.00
2022-11-29T10:25:10.467Z,98609.00
2022-11-29T10:27:59.123Z,98605.00
2022-11-29T10:30:48.868Z,98602.00
2022-11-29T10:33:41.201Z,98611.00
2022-11-29T10:36:36.936Z,98605.00
2022-11-29T10:39:48.761Z,98595.00
2022-11-29T10:42:54.771Z,98597.00
2022-11-29T10:45:51.144Z,98589.00
2022-11-29T10:48:38.811Z,98586.00
2022-11-29T10:51:26.357Z,98586.00
2022-11-29T10:54:41.942Z,98594.00
2022-11-29T10:57:29.998Z,98590.00
2022-11-29T11:00:18.176Z,98583.00
2022-11-29T11:03:29.632Z,98593.00
2022-11-29T11:06:41.456Z,98593.00
2022-11-29T11:09:48.826Z,98590.00
2022-11-29T11:12:37.212Z,98599.00
2022-11-29T11:15:25.747Z,98593.00
2022-11-29T11:18:25.575Z,98595.00
2022-11-29T11:21:17.138Z,98587.00
2022-11-29T11:24:05.799Z,98589.00
2022-11-29T11:26:54.437Z,98582.00
2022-11-29T11:29:45.321Z,98590.00
2022-11-29T11:32:32.982Z,98588.00
2022-11-29T11:35:24.493Z,98590.00
2022-11-29T11:38:18.902Z,98586.00
2022-11-29T11:41:51.057Z,98589.00
2022-11-29T11:44:52.821Z,98596.00
2022-11-29T11:47:53.837Z,98593.00
2022-11-29T11:50:54.312Z,98586.00
2022-11-29T11:53:44.362Z,98584.00
2022-11-29T11:56:36.577Z,98588.00
2022-11-29T11:59:27.312Z,98581.00
2022-11-29T12:02:44.651Z,98580.00
2022-11-29T12:05:32.697Z,98580.00
2022-11-29T12:08:21.934Z,98591.00
2022-11-29T12:11:15.163Z,98588.00
2022-11-29T12:14:07.382Z,98588.00
2022-11-29T12:17:21.352Z,98601.00
2022-11-29T12:20:44.581Z,98590.00
2022-11-29T12:24:07.051Z,98582.00
2022-11-29T12:27:03.495Z,98583.00
2022-11-29T12:29:51.673Z,98581.00
2022-11-29T12:33:07.847Z,98578.00
2022-11-29T12:36:19.262Z,98586.00
2022-11-29T12:39:32.612Z,98585.00
2022-11-29T12:43:00.226Z,98588.00
2022-11-29T12:46:27.548Z,98588.00
2022-11-29T12:49:44.027Z,98578.00
2022-11-29T12:52:51.561Z,98579.00
2022-11-29T12:55:54.257Z,98584.00
2022-11-29T12:59:01.462Z,98583.00
2022-11-29T13:02:15.082Z,98589.00
2022-11-29T13:05:17.155Z,98587.00
2022-11-29T13:08:58.413Z,98593.00
2022-11-29T13:12:10.673Z,98594.00
2022-11-29T13:15:24.873Z,98600.00
2022-11-29T13:19:04.994Z,98597.00
2022-11-29T13:22:06.997Z,98592.00
2022-11-29T13:24:56.894Z,98598.00
2022-11-29T13:28:00.528Z,98608.00
2022-11-29T13:30:48.981Z,98602.00
2022-11-29T13:33:59.812Z,98602.00
2022-11-29T13:37:19.129Z,98607.00
2022-11-29T13:41:22.538Z,98610.00
2022-11-29T13:44:33.880Z,98608.00
2022-11-29T13:47:22.397Z,98606.00
2022-11-29T13:50:37.180Z,98609.00
2022-11-29T13:53:45.233Z,98606.00
2022-11-29T13:56:48.317Z,98604.00
2022-11-29T13:59:45.909Z,98604.00
2022-11-29T14:02:35.525Z,98612.00
2022-11-29T14:05:29.090Z,98606.00
2022-11-29T14:08:48.153Z,98608.00
2022-11-29T14:12:18.042Z,98610.00
2022-11-29T14:15:31.366Z,98612.00
2022-11-29T14:19:10.404Z,98617.00
2022-11-29T14:22:06.901Z,98612.00
2022-11-29T14:25:05.415Z,98614.00
2022-11-29T14:28:13.461Z,98608.00
2022-11-29T14:31:06.772Z,98613.00
2022-11-29T14:34:24.985Z,98616.00
2022-11-29T14:37:35.778Z,98609.00
2022-11-29T14:40:33.902Z,98614.00
2022-11-29T14:43:41.807Z,98623.00
2022-11-29T14:46:32.708Z,98618.00
2022-11-29T14:49:27.023Z,98622.00
2022-11-29T14:52:14.427Z,98630.00
2022-11-29T14:55:11.382Z,98631.00
2022-11-29T14:58:03.861Z,98632.00
2022-11-29T15:01:03.863Z,98639.00
2022-11-29T15:03:56.542Z,98634.00
2022-11-29T15:06:48.789Z,98646.00
2022-11-29T15:09:42.268Z,98656.00
2022-11-29T15:12:37.475Z,98654.00
2022-11-29T15:15:38.121Z,98659.00
2022-11-29T15:18:36.611Z,98661.00
2022-11-29T15:22:16.923Z,98667.00
2022-11-29T15:25:26.431Z,98674.00
2022-11-29T15:28:28.426Z,98667.00
2022-11-29T15:31:20.968Z,98675.00
2022-11-29T15:34:35.098Z,98682.00
2022-11-29T15:37:34.501Z,98691.00
2022-11-29T15:40:31.712Z,98686.00
2022-11-29T15:43:30.587Z,98693.00
2022-11-29T15:46:27.163Z,98682.00
2022-11-29T15:49:28.346Z,98681.00
2022-11-29T15:52:28.038Z,98677.00
2022-11-29T15:55:16.185Z,98679.00
2022-11-29T15:58:08.732Z,98685.00
2022-11-29T16:01:00.962Z,98674.00
2022-11-29T16:03:53.552Z,98677.00
2022-11-29T16:06:48.983Z,98670.00
2022-11-29T16:09:57.131Z,98671.00
2022-11-29T16:13:38.905Z,98666.00
2022-11-29T16:16:28.881Z,98672.00
2022-11-29T16:19:36.672Z,98676.00
2022-11-29T16:22:24.771Z,98682.00
2022-11-29T16:25:20.341Z,98684.00
2022-11-29T16:28:12.855Z,98692.00
2022-11-29T16:31:00.901Z,98691.00
2022-11-29T16:33:51.521Z,98694.00
2022-11-29T16:36:39.516Z,98688.00
2022-11-29T16:39:27.422Z,98693.00
2022-11-29T16:42:26.226Z,98694.00
2022-11-29T16:45:35.366Z,98705.00
2022-11-29T16:48:23.128Z,98708.00
2022-11-29T16:51:13.285Z,98700.00
2022-11-29T16:54:34.576Z,98700.00
2022-11-29T16:57:22.421Z,98706.00
2022-11-29T17:00:24.972Z,98716.00
2022-11-29T17:03:12.671Z,98715.00
2022-11-29T17:06:00.914Z,98716.00
2022-11-29T17:08:51.366Z,98714.00
2022-11-29T17:11:38.839Z,98717.00
2022-11-29T17:14:27.882Z,98715.00
2022-11-29T17:17:18.429Z,98714.00
2022-11-29T17:20:08.343Z,98712.00
2022-11-29T17:22:56.038Z,98724.00
2022-11-29T17:25:43.715Z,98726.00
2022-11-29T17:28:31.131Z,98722.00
2022-11-29T17:31:24.904Z,98710.00
2022-11-29T17:34:12.941Z,98721.00
2022-11-29T17:37:00.361Z,98719.00
2022-11-29T17:39:49.249Z,98716.00
2022-11-29T17:42:36.901Z,98720.00
2022-11-29T17:45:24.525Z,98720.00
2022-11-29T17:48:12.523Z,98732.00
2022-11-29T17:51:01.468Z,98734.00
2022-11-29T17:53:50.731Z,98735.00
2022-11-29T17:56:38.613Z,98738.00
2022-11-29T17:59:26.647Z,98739.00
2022-11-29T18:02:14.320Z,98746.00
2022-11-29T18:05:01.881Z,98747.00
2022-11-29T18:07:58.323Z,98743.00
2022-11-29T18:10:45.982Z,98745.00
2022-11-29T18:13:35.906Z,98754.00
2022-11-29T18:16:31.101Z,98753.00
2022-11-29T18:19:21.944Z,98758.00
2022-11-29T18:22:09.787Z,98764.00
2022-11-29T18:25:15.809Z,98762.00
2022-11-29T18:28:05.166Z,98769.00
2022-11-29T18:30:52.876Z,98774.00
2022-11-29T18:33:42.754Z,98773.00
2022-11-29T18:36:34.063Z,98774.00
2022-11-29T18:39:23.667Z,98773.00
2022-11-29T18:42:12.706Z,98771.00
2022-11-29T18:45:00.130Z,98784.00
2022-11-29T18:47:47.651Z,98781.00
2022-11-29T18:50:35.226Z,98777.00
2022-11-29T18:53:22.616Z,98781.00
2022-11-29T18:56:22.130Z,98793.00
2022-11-29T18:59:17.367Z,98788.00
2022-11-29T19:02:05.148Z,98801.00
2022-11-29T19:04:52.922Z,98803.00
2022-11-29T19:07:40.366Z,98803.00
2022-11-29T19:10:27.926Z,98803.00
2022-11-29T19:13:15.536Z,98805.00
2022-11-29T19:16:05.058Z,98815.00
2022-11-29T19:18:56.356Z,98815.00
2022-11-29T19:21:43.977Z,98813.00
2022-11-29T19:24:31.463Z,98813.00
2022-11-29T19:27:20.021Z,98809.00
2022-11-29T19:30:08.656Z,98813.00
2022-11-29T19:32:56.122Z,98805.00
2022-11-29T19:35:43.772Z,98802.00
2022-11-29T19:38:31.291Z,98810.00
2022-11-29T19:41:25.921Z,98822.00
2022-11-29T19:44:15.397Z,98818.00
2022-11-29T19:47:03.107Z,98815.00
2022-11-29T19:49:55.046Z,98821.00
2022-11-29T19:52:45.665Z,98834.00
2022-11-29T19:55:34.200Z,98836.00
2022-11-29T19:58:22.597Z,98829.00
2022-11-29T20:01:18.100Z,98827.00
2022-11-29T20:04:05.789Z,98824.00
2022-11-29T20:06:54.764Z,98830.00
2022-11-29T20:09:42.156Z,98836.00
2022-11-29T20:12:32.667Z,98834.00
2022-11-29T20:15:20.581Z,98836.00
2022-11-29T20:18:08.666Z,98841.00
2022-11-29T20:20:56.348Z,98834.00
2022-11-29T20:23:44.210Z,98834.00
2022-11-29T20:26:35.222Z,98839.00
2022-11-29T20:29:27.181Z,98833.00
2022-11-29T20:32:14.962Z,98850.00
2022-11-29T20:35:04.026Z,98849.00
2022-11-29T20:38:17.482Z,98852.00
2022-11-29T20:41:17.156Z,98856.00
2022-11-29T20:44:05.061Z,98850.00
2022-11-29T20:46:52.821Z,98863.00
2022-11-29T20:49:41.634Z,98858.00
2022-11-29T20:52:44.507Z,98862.00
2022-11-29T20:55:32.221Z,98863.00
2022-11-29T20:58:20.014Z,98867.00
2022-11-29T21:01:08.077Z,98862.00
2022-11-29T21:03:55.852Z,98865.00
2022-11-29T21:06:43.319Z,98870.00
2022-11-29T21:09:31.016Z,98867.00
2022-11-29T21:12:19.035Z,98867.00
2022-11-29T21:15:08.951Z,98867.00
2022-11-29T21:17:57.021Z,98864.00
2022-11-29T21:20:49.848Z,98857.00
2022-11-29T21:24:05.466Z,98863.00
2022-11-29T21:26:53.812Z,98859.00
2022-11-29T21:29:41.732Z,98863.00
2022-11-29T21:32:31.066Z,98862.00
2022-11-29T21:35:19.162Z,98867.00
2022-11-29T21:38:13.973Z,98864.00
2022-11-29T21:41:01.287Z,98858.00
2022-11-29T21:46:56.726Z,98860.00
2022-11-29T21:49:45.076Z,98866.00
2022-11-29T21:52:35.867Z,98854.00
2022-11-29T21:55:30.029Z,98855.00
2022-11-29T21:58:20.512Z,98838.00
2022-11-29T22:01:18.464Z,98845.00
2022-11-29T22:04:06.281Z,98853.00
2022-11-29T22:06:54.092Z,98841.00
2022-11-29T22:09:41.786Z,98851.00
2022-11-29T22:12:36.470Z,98841.00
2022-11-29T22:15:25.264Z,98849.00
2022-11-29T22:18:12.872Z,98850.00
2022-11-29T22:21:07.103Z,98851.00
2022-11-29T22:23:54.703Z,98850.00
2022-11-29T22:26:44.176Z,98852.00
2022-11-29T22:29:31.732Z,98848.00
2022-11-29T22:32:19.538Z,98856.00
2022-11-29T22:35:07.917Z,98860.00
2022-11-29T22:37:55.601Z,98863.00
2022-11-29T22:40:43.211Z,98858.00
2022-11-29T22:43:32.631Z,98862.00
2022-11-29T22:46:26.187Z,98863.00
2022-11-29T22:49:14.052Z,98866.00
2022-11-29T22:52:01.621Z,98859.00
2022-11-29T22:54:49.624Z,98857.00
2022-11-29T22:57:37.409Z,98854.00
2022-11-29T23:00:24.877Z,98871.00
2022-11-29T23:03:12.662Z,98862.00
2022-11-29T23:06:16.663Z,98864.00
2022-11-29T23:09:12.030Z,98873.00
2022-11-29T23:11:59.617Z,98877.00
2022-11-29T23:14:51.566Z,98879.00
2022-11-29T23:17:41.982Z,98880.00
2022-11-29T23:20:29.461Z,98878.00
2022-11-29T23:23:16.912Z,98883.00
2022-11-29T23:26:07.057Z,98884.00
2022-11-29T23:28:56.342Z,98886.00
2022-11-29T23:31:44.856Z,98874.00
2022-11-29T23:34:32.521Z,98883.00
2022-11-29T23:37:20.346Z,98881.00
2022-11-29T23:40:09.153Z,98884.00
2022-11-29T23:42:56.986Z,98885.00
2022-11-29T23:45:45.013Z,98886.00
2022-11-29T23:48:32.982Z,98884.00
2022-11-29T23:51:20.832Z,98878.00
2022-11-29T23:54:08.364Z,98878.00
2022-11-29T23:56:55.799Z,98884.00
2022-11-29T23:59:43.761Z,98869.00
